createdAt,value
2023-03-21T00:00:41.253Z,52305.84
2023-03-21T00:03:07.946Z,52297.72
2023-03-21T00:05:34.489Z,52311.94
2023-03-21T00:08:02.616Z,52281.44
2023-03-21T00:10:39.485Z,52287.53
2023-03-21T00:13:07.987Z,52277.34
2023-03-21T00:15:44.351Z,52281.44
2023-03-21T00:18:17.636Z,52309.91
2023-03-21T00:20:46.492Z,52326.19
2023-03-21T00:23:13.314Z,52328.22
2023-03-21T00:25:40.133Z,52330.25
2023-03-21T00:28:08.550Z,52322.13
2023-03-21T00:30:35.492Z,52313.97
2023-03-21T00:33:11.997Z,52324.16
2023-03-21T00:36:02.587Z,52279.41
2023-03-21T00:38:31.509Z,52305.84
2023-03-21T00:41:01.945Z,52307.88
2023-03-21T00:43:31.256Z,52305.84
2023-03-21T00:45:58.915Z,52340.44
2023-03-21T00:48:26.867Z,52297.72
2023-03-21T00:50:55.473Z,52324.16
2023-03-21T00:53:22.204Z,52358.75
2023-03-21T00:55:48.869Z,52311.94
2023-03-21T00:58:16.457Z,52303.81
2023-03-21T01:00:43.790Z,52352.66
2023-03-21T01:03:23.754Z,52309.91
2023-03-21T01:06:05.573Z,52350.59
2023-03-21T01:08:53.597Z,52356.72
2023-03-21T01:11:25.733Z,52338.41
2023-03-21T01:14:01.630Z,52350.59
2023-03-21T01:16:34.611Z,52350.59
2023-03-21T01:19:02.132Z,52354.69
2023-03-21T01:21:32.058Z,52309.91
2023-03-21T01:23:58.963Z,52350.59
2023-03-21T01:26:25.389Z,52305.84
2023-03-21T01:28:51.823Z,52364.84
2023-03-21T01:31:18.598Z,52344.50
2023-03-21T01:33:45.843Z,52356.72
2023-03-21T01:36:21.091Z,52360.78
2023-03-21T01:38:49.345Z,52379.09
2023-03-21T01:41:36.781Z,52387.22
2023-03-21T01:44:07.475Z,52338.41
2023-03-21T01:46:49.584Z,52348.56
2023-03-21T01:49:27.751Z,52336.38
2023-03-21T01:52:12.155Z,52338.41
2023-03-21T01:54:42.261Z,52366.88
2023-03-21T01:57:18.623Z,52364.84
2023-03-21T01:59:51.223Z,52348.56
2023-03-21T02:02:25.504Z,52379.09
2023-03-21T02:04:55.944Z,52375.03
2023-03-21T02:07:31.623Z,52350.59
2023-03-21T02:09:59.046Z,52362.81
2023-03-21T02:12:27.193Z,52348.56
2023-03-21T02:14:55.381Z,52362.81
2023-03-21T02:17:28.634Z,52344.50
2023-03-21T02:20:13.655Z,52358.75
2023-03-21T02:23:23.039Z,52350.59
2023-03-21T02:26:14.273Z,52342.47
2023-03-21T02:29:01.940Z,52350.59
2023-03-21T02:31:42.892Z,52348.56
2023-03-21T02:34:44.518Z,52387.22
2023-03-21T02:37:28.963Z,52330.25
2023-03-21T02:40:30.809Z,52328.22
2023-03-21T02:43:23.081Z,52348.56
2023-03-21T02:46:24.258Z,52362.81
2023-03-21T02:48:58.926Z,52330.25
2023-03-21T02:51:27.689Z,52360.78
2023-03-21T02:54:26.128Z,52299.75
2023-03-21T02:56:49.412Z,52350.59
2023-03-21T02:59:17.752Z,52379.09
2023-03-21T03:01:44.305Z,52368.94
2023-03-21T03:04:28.346Z,52362.81
2023-03-21T03:07:17.802Z,52340.44
2023-03-21T03:10:03.014Z,52389.28
2023-03-21T03:12:32.231Z,52405.56
2023-03-21T03:15:26.600Z,52391.31
2023-03-21T03:18:08.069Z,52381.13
2023-03-21T03:20:52.681Z,52370.97
2023-03-21T03:23:32.564Z,52385.19
2023-03-21T03:26:09.963Z,52401.47
2023-03-21T03:28:42.663Z,52399.44
2023-03-21T03:31:14.955Z,52397.41
2023-03-21T03:33:46.566Z,52366.88
2023-03-21T03:36:30.391Z,52342.47
2023-03-21T03:39:00.820Z,52399.44
2023-03-21T03:41:30.066Z,52397.41
2023-03-21T03:44:00.755Z,52401.47
2023-03-21T03:46:33.248Z,52383.16
2023-03-21T03:49:10.512Z,52373.00
2023-03-21T03:51:47.026Z,52356.72
2023-03-21T03:54:19.245Z,52385.19
2023-03-21T03:56:46.861Z,52391.31
2023-03-21T03:59:19.386Z,52377.06
2023-03-21T04:01:46.103Z,52362.81
2023-03-21T04:04:13.862Z,52358.75
2023-03-21T04:06:41.454Z,52346.53
2023-03-21T04:09:19.009Z,52403.50
2023-03-21T04:11:46.660Z,52379.09
2023-03-21T04:14:13.036Z,52385.19
2023-03-21T04:16:39.557Z,52362.81
2023-03-21T04:19:06.026Z,52393.34
2023-03-21T04:21:32.741Z,52383.16
2023-03-21T04:23:59.608Z,52346.53
2023-03-21T04:26:31.175Z,52405.56
2023-03-21T04:29:00.230Z,52395.38
2023-03-21T04:31:28.659Z,52352.66
2023-03-21T04:33:55.956Z,52366.88
2023-03-21T04:36:27.686Z,52413.69
2023-03-21T04:38:54.967Z,52399.44
2023-03-21T04:41:21.424Z,52395.38
2023-03-21T04:43:48.464Z,52395.38
2023-03-21T04:46:15.556Z,52366.88
2023-03-21T04:48:42.109Z,52393.34
2023-03-21T04:51:08.577Z,52362.81
2023-03-21T04:53:35.429Z,52360.78
2023-03-21T04:56:02.188Z,52354.69
2023-03-21T04:58:28.666Z,52397.41
2023-03-21T05:00:55.100Z,52385.19
2023-03-21T05:03:22.000Z,52342.47
2023-03-21T05:05:49.245Z,52403.50
2023-03-21T05:08:18.600Z,52401.47
2023-03-21T05:10:45.723Z,52409.63
2023-03-21T05:13:12.448Z,52373.00
2023-03-21T05:15:39.092Z,52366.88
2023-03-21T05:18:10.550Z,52407.59
2023-03-21T05:20:44.286Z,52399.44
2023-03-21T05:23:11.753Z,52360.78
2023-03-21T05:25:39.627Z,52407.59
2023-03-21T05:28:07.876Z,52415.72
2023-03-21T05:30:34.591Z,52377.06
2023-03-21T05:33:01.140Z,52364.84
2023-03-21T05:35:27.795Z,52405.56
2023-03-21T05:37:54.266Z,52354.69
2023-03-21T05:40:20.742Z,52397.41
2023-03-21T05:42:47.417Z,52375.03
2023-03-21T05:45:14.463Z,52395.38
2023-03-21T05:47:41.041Z,52403.50
2023-03-21T05:50:08.130Z,52364.84
2023-03-21T05:52:34.464Z,52370.97
2023-03-21T05:55:01.061Z,52379.09
2023-03-21T05:57:28.869Z,52393.34
2023-03-21T05:59:55.576Z,52415.72
2023-03-21T06:02:22.049Z,52364.84
2023-03-21T06:04:48.671Z,52389.28
2023-03-21T06:07:15.341Z,52366.88
2023-03-21T06:09:41.902Z,52366.88
2023-03-21T06:12:08.398Z,52391.31
2023-03-21T06:14:34.844Z,52362.81
2023-03-21T06:17:01.289Z,52377.06
2023-03-21T06:19:27.944Z,52385.19
2023-03-21T06:21:54.385Z,52352.66
2023-03-21T06:24:21.541Z,52387.22
2023-03-21T06:26:48.409Z,52387.22
2023-03-21T06:29:14.962Z,52381.13
2023-03-21T06:31:41.501Z,52403.50
2023-03-21T06:34:08.243Z,52395.38
2023-03-21T06:36:34.683Z,52379.09
2023-03-21T06:39:01.145Z,52375.03
2023-03-21T06:41:27.855Z,52425.91
2023-03-21T06:43:54.283Z,52366.88
2023-03-21T06:46:20.797Z,52358.75
2023-03-21T06:48:47.295Z,52375.03
2023-03-21T06:51:14.710Z,52368.94
2023-03-21T06:53:41.819Z,52344.50
2023-03-21T06:56:11.913Z,52368.94
2023-03-21T06:58:38.754Z,52336.38
2023-03-21T07:01:06.972Z,52379.09
2023-03-21T07:03:34.228Z,52385.19
2023-03-21T07:06:07.493Z,52381.13
2023-03-21T07:08:34.186Z,52346.53
2023-03-21T07:11:00.735Z,52360.78
2023-03-21T07:13:27.182Z,52373.00
2023-03-21T07:15:54.358Z,52342.47
2023-03-21T07:18:20.919Z,52346.53
2023-03-21T07:20:51.056Z,52364.84
2023-03-21T07:23:23.024Z,52346.53
2023-03-21T07:25:51.223Z,52364.84
2023-03-21T07:28:18.536Z,52362.81
2023-03-21T07:30:45.805Z,52387.22
2023-03-21T07:33:12.877Z,52364.84
2023-03-21T07:35:39.595Z,52391.31
2023-03-21T07:38:06.728Z,52362.81
2023-03-21T07:40:35.788Z,52379.09
2023-03-21T07:45:29.610Z,52342.47
2023-03-21T07:47:56.278Z,52366.88
2023-03-21T07:50:32.569Z,52324.16
2023-03-21T07:52:59.003Z,52391.31
2023-03-21T07:55:25.408Z,52352.66
2023-03-21T07:57:52.839Z,52358.75
2023-03-21T08:00:23.508Z,52364.84
2023-03-21T08:02:57.883Z,52354.69
2023-03-21T08:05:27.445Z,52362.81
2023-03-21T08:07:53.957Z,52346.53
2023-03-21T08:10:20.857Z,52350.59
2023-03-21T08:12:47.857Z,52350.59
2023-03-21T08:15:14.605Z,52350.59
2023-03-21T08:17:41.892Z,52328.22
2023-03-21T08:20:10.254Z,52326.19
2023-03-21T08:22:37.063Z,52344.50
2023-03-21T08:25:06.190Z,52338.41
2023-03-21T08:27:33.093Z,52373.00
2023-03-21T08:30:01.474Z,52342.47
2023-03-21T08:32:31.281Z,52348.56
2023-03-21T08:35:02.408Z,52305.84
2023-03-21T08:37:29.048Z,52338.41
2023-03-21T08:39:55.530Z,52342.47
2023-03-21T08:42:23.507Z,52354.69
2023-03-21T08:44:50.035Z,52293.63
2023-03-21T08:47:16.638Z,52326.19
2023-03-21T08:49:45.672Z,52307.88
2023-03-21T08:52:12.345Z,52324.16
2023-03-21T08:54:40.078Z,52311.94
2023-03-21T08:57:06.875Z,52267.19
2023-03-21T08:59:33.307Z,52305.84
2023-03-21T09:01:59.782Z,52332.28
2023-03-21T09:04:27.009Z,52305.84
2023-03-21T09:06:56.253Z,52334.34
2023-03-21T09:09:22.773Z,52334.34
2023-03-21T09:11:50.952Z,52338.41
2023-03-21T09:14:19.301Z,52318.06
2023-03-21T09:16:46.896Z,52299.75
2023-03-21T09:19:13.422Z,52348.56
2023-03-21T09:21:40.662Z,52313.97
2023-03-21T09:24:07.565Z,52281.44
2023-03-21T09:26:36.027Z,52279.41
2023-03-21T09:29:05.942Z,52344.50
2023-03-21T09:31:32.733Z,52348.56
2023-03-21T09:33:59.800Z,52295.66
2023-03-21T09:36:27.345Z,52309.91
2023-03-21T09:38:56.872Z,52328.22
2023-03-21T09:41:50.858Z,52287.53
2023-03-21T09:44:41.945Z,52289.56
2023-03-21T09:47:25.100Z,52328.22
2023-03-21T09:50:17.106Z,52305.84
2023-03-21T09:52:50.681Z,52305.84
2023-03-21T09:55:21.387Z,52307.88
2023-03-21T09:57:51.622Z,52265.16
2023-03-21T10:00:25.736Z,52293.63
2023-03-21T10:02:57.522Z,52318.06
2023-03-21T10:05:27.666Z,52277.34
2023-03-21T10:08:13.302Z,52287.53
2023-03-21T10:10:46.996Z,52277.34
2023-03-21T10:13:26.727Z,52318.06
2023-03-21T10:16:06.586Z,52248.88
2023-03-21T10:18:33.256Z,52261.09
2023-03-21T10:21:06.315Z,52254.97
2023-03-21T10:23:33.121Z,52224.47
2023-03-21T10:26:02.996Z,52242.78
2023-03-21T10:28:49.979Z,52236.66
2023-03-21T10:31:21.906Z,52216.31
2023-03-21T10:33:50.689Z,52248.88
2023-03-21T10:36:22.933Z,52214.28
2023-03-21T10:38:54.853Z,52228.53
2023-03-21T10:41:21.542Z,52238.69
2023-03-21T10:44:05.683Z,52220.38
2023-03-21T10:46:36.103Z,52193.94
2023-03-21T10:49:03.797Z,52216.31
2023-03-21T10:51:36.835Z,52189.88
2023-03-21T10:54:12.727Z,52208.19
2023-03-21T10:56:45.348Z,52210.22
2023-03-21T10:59:20.601Z,52200.03
2023-03-21T11:01:51.590Z,52214.28
2023-03-21T11:04:22.477Z,52212.25
2023-03-21T11:07:01.693Z,52191.91
2023-03-21T11:09:53.777Z,52185.81
2023-03-21T11:12:39.275Z,52189.88
2023-03-21T11:15:27.180Z,52169.53
2023-03-21T11:17:53.942Z,52195.97
2023-03-21T11:20:21.436Z,52187.84
2023-03-21T11:22:49.309Z,52165.44
2023-03-21T11:25:32.355Z,52204.13
2023-03-21T11:27:59.508Z,52183.75
2023-03-21T11:30:28.036Z,52141.03
2023-03-21T11:32:57.942Z,52161.38
2023-03-21T11:35:39.489Z,52212.25
2023-03-21T11:38:24.017Z,52171.56
2023-03-21T11:40:58.254Z,52159.34
2023-03-21T11:43:31.984Z,52120.69
2023-03-21T11:46:04.794Z,52155.28
2023-03-21T11:48:40.686Z,52161.38
2023-03-21T11:51:18.823Z,52134.94
2023-03-21T11:53:51.590Z,52212.25
2023-03-21T11:56:18.024Z,52185.81
2023-03-21T11:58:58.767Z,52171.56
2023-03-21T12:01:52.618Z,52151.22
2023-03-21T12:04:47.020Z,52161.38
2023-03-21T12:07:32.009Z,52167.50
2023-03-21T12:10:28.282Z,52177.66
2023-03-21T12:13:08.748Z,52116.63
2023-03-21T12:15:50.352Z,52147.13
2023-03-21T12:18:33.635Z,52122.72
2023-03-21T12:21:09.393Z,52145.09
2023-03-21T12:23:41.242Z,52163.41
2023-03-21T12:26:10.803Z,52136.97
2023-03-21T12:28:52.233Z,52139.00
2023-03-21T12:31:47.863Z,52118.66
2023-03-21T12:34:35.920Z,52124.75
2023-03-21T12:37:35.983Z,52130.88
2023-03-21T12:40:29.152Z,52096.28
2023-03-21T12:43:20.778Z,52112.56
2023-03-21T12:45:51.100Z,52139.00
2023-03-21T12:48:41.571Z,52118.66
2023-03-21T12:51:15.676Z,52106.44
2023-03-21T12:53:47.693Z,52100.34
2023-03-21T12:56:36.919Z,52067.78
2023-03-21T12:59:18.048Z,52116.63
2023-03-21T13:01:47.821Z,52130.88
2023-03-21T13:04:40.737Z,52096.28
2023-03-21T13:07:12.686Z,52080.00
2023-03-21T13:09:41.652Z,52104.41
2023-03-21T13:12:35.474Z,52141.03
2023-03-21T13:15:24.387Z,52139.00
2023-03-21T13:18:01.926Z,52098.31
2023-03-21T13:20:40.769Z,52106.44
2023-03-21T13:23:13.583Z,52126.78
2023-03-21T13:25:46.839Z,52071.84
2023-03-21T13:28:21.235Z,52098.31
2023-03-21T13:30:48.934Z,52094.25
2023-03-21T13:33:30.226Z,52090.16
2023-03-21T13:36:09.009Z,52124.75
2023-03-21T13:38:40.324Z,52102.38
2023-03-21T13:41:12.615Z,52094.25
2023-03-21T13:43:45.583Z,52084.06
2023-03-21T13:46:15.237Z,52104.41
2023-03-21T13:48:58.590Z,52132.91
2023-03-21T13:51:28.845Z,52080.00
2023-03-21T13:54:07.372Z,52090.16
2023-03-21T13:56:51.227Z,52077.97
2023-03-21T13:59:34.936Z,52075.94
2023-03-21T14:02:13.175Z,52059.66
2023-03-21T14:04:53.986Z,52080.00
2023-03-21T14:07:34.660Z,52098.31
2023-03-21T14:10:06.347Z,52106.44
2023-03-21T14:12:42.532Z,52082.03
2023-03-21T14:15:19.430Z,52094.25
2023-03-21T14:17:54.451Z,52098.31
2023-03-21T14:20:23.047Z,52092.22
2023-03-21T14:22:49.975Z,52116.63
2023-03-21T14:25:17.400Z,52084.06
2023-03-21T14:27:48.945Z,52122.72
2023-03-21T14:30:34.831Z,52080.00
2023-03-21T14:33:10.955Z,52104.41
2023-03-21T14:35:37.856Z,52080.00
2023-03-21T14:38:18.133Z,52061.69
2023-03-21T14:40:50.135Z,52090.16
2023-03-21T14:43:18.126Z,52057.63
2023-03-21T14:45:47.871Z,52084.06
2023-03-21T14:48:16.947Z,52061.69
2023-03-21T14:50:54.944Z,52102.38
2023-03-21T14:53:46.740Z,52023.03
2023-03-21T14:56:23.186Z,52096.28
2023-03-21T14:58:50.517Z,52063.72
2023-03-21T15:01:27.333Z,52043.38
2023-03-21T15:03:53.957Z,52065.75
2023-03-21T15:06:20.496Z,52088.13
2023-03-21T15:09:07.895Z,52059.66
2023-03-21T15:11:38.073Z,52063.72
2023-03-21T15:14:12.290Z,52084.06
2023-03-21T15:16:39.779Z,52069.81
2023-03-21T15:19:07.283Z,52071.84
2023-03-21T15:21:43.920Z,52088.13
2023-03-21T15:24:18.660Z,52098.31
2023-03-21T15:26:47.909Z,52092.22
2023-03-21T15:29:16.776Z,52094.25
2023-03-21T15:31:43.829Z,52102.38
2023-03-21T15:34:24.158Z,52084.06
2023-03-21T15:36:56.184Z,52084.06
2023-03-21T15:39:23.846Z,52102.38
2023-03-21T15:42:21.140Z,52077.97
2023-03-21T15:44:51.286Z,52106.44
2023-03-21T15:47:35.976Z,52104.41
2023-03-21T15:50:08.583Z,52106.44
2023-03-21T15:52:36.400Z,52071.84
2023-03-21T15:55:04.182Z,52090.16
2023-03-21T15:57:38.053Z,52114.59
2023-03-21T16:00:18.490Z,52116.63
2023-03-21T16:02:45.650Z,52112.56
2023-03-21T16:05:29.013Z,52084.06
2023-03-21T16:08:04.004Z,52106.44
2023-03-21T16:10:37.128Z,52139.00
2023-03-21T16:13:10.897Z,52126.78
2023-03-21T16:15:38.353Z,52098.31
2023-03-21T16:18:07.194Z,52114.59
2023-03-21T16:20:41.594Z,52134.94
2023-03-21T16:23:11.014Z,52061.69
2023-03-21T16:25:37.752Z,52120.69
2023-03-21T16:28:05.376Z,52147.13
2023-03-21T16:30:31.841Z,52114.59
2023-03-21T16:32:58.339Z,52096.28
2023-03-21T16:35:26.099Z,52149.19
2023-03-21T16:37:52.591Z,52122.72
2023-03-21T16:40:28.088Z,52147.13
2023-03-21T16:42:54.572Z,52149.19
2023-03-21T16:45:21.448Z,52134.94
2023-03-21T16:47:48.027Z,52151.22
2023-03-21T16:50:22.668Z,52177.66
2023-03-21T16:52:49.137Z,52149.19
2023-03-21T16:55:15.872Z,52149.19
2023-03-21T16:57:43.216Z,52139.00
2023-03-21T17:00:13.062Z,52124.75
2023-03-21T17:02:39.502Z,52151.22
2023-03-21T17:05:07.525Z,52181.72
2023-03-21T17:07:33.949Z,52147.13
2023-03-21T17:10:00.673Z,52191.91
2023-03-21T17:12:27.105Z,52151.22
2023-03-21T17:14:53.524Z,52161.38
2023-03-21T17:17:20.479Z,52193.94
2023-03-21T17:19:47.427Z,52163.41
2023-03-21T17:22:14.670Z,52191.91
2023-03-21T17:24:41.299Z,52214.28
2023-03-21T17:27:11.038Z,52189.88
2023-03-21T17:29:37.770Z,52185.81
2023-03-21T17:32:04.369Z,52177.66
2023-03-21T17:34:31.246Z,52195.97
2023-03-21T17:36:57.691Z,52202.06
2023-03-21T17:39:26.673Z,52165.44
2023-03-21T17:41:53.744Z,52183.75
2023-03-21T17:44:20.957Z,52214.28
2023-03-21T17:46:50.205Z,52191.91
2023-03-21T17:49:17.616Z,52193.94
2023-03-21T17:51:46.792Z,52214.28
2023-03-21T17:54:13.322Z,52246.84
2023-03-21T17:56:41.681Z,52224.47
2023-03-21T17:59:12.420Z,52228.53
2023-03-21T18:01:38.941Z,52228.53
2023-03-21T18:04:05.792Z,52228.53
2023-03-21T18:06:34.053Z,52232.59
2023-03-21T18:09:04.008Z,52200.03
2023-03-21T18:11:30.503Z,52238.69
2023-03-21T18:14:13.821Z,52220.38
2023-03-21T18:16:42.462Z,52206.16
2023-03-21T18:19:10.112Z,52234.63
2023-03-21T18:21:38.322Z,52206.16
2023-03-21T18:24:05.215Z,52179.69
2023-03-21T18:26:31.673Z,52206.16
2023-03-21T18:29:47.488Z,52200.03
2023-03-21T18:31:54.411Z,52187.84
2023-03-21T18:34:29.707Z,52193.94
2023-03-21T18:36:56.306Z,52224.47
2023-03-21T18:39:22.661Z,52257.00
2023-03-21T18:41:49.179Z,52204.13
2023-03-21T18:44:19.879Z,52234.63
2023-03-21T18:46:48.328Z,52198.00
2023-03-21T18:52:02.660Z,52208.19
2023-03-21T18:54:29.080Z,52232.59
2023-03-21T18:59:42.628Z,52283.47
2023-03-21T19:02:13.840Z,52263.13
2023-03-21T19:04:40.688Z,52267.19
2023-03-21T19:07:08.649Z,52265.16
2023-03-21T19:09:58.263Z,52254.97
2023-03-21T19:12:23.671Z,52295.66
2023-03-21T19:14:50.093Z,52238.69
2023-03-21T19:18:07.171Z,52265.16
2023-03-21T19:20:08.708Z,52279.41
2023-03-21T19:22:35.634Z,52293.63
2023-03-21T19:25:02.042Z,52269.22
2023-03-21T19:27:28.530Z,52289.56
2023-03-21T19:30:10.910Z,52283.47
2023-03-21T19:32:40.637Z,52263.13
2023-03-21T19:35:07.540Z,52259.03
2023-03-21T19:37:36.162Z,52283.47
2023-03-21T19:40:05.352Z,52254.97
2023-03-21T19:42:32.449Z,52252.94
2023-03-21T19:44:58.916Z,52295.66
2023-03-21T19:47:25.538Z,52252.94
2023-03-21T19:50:40.874Z,52269.22
2023-03-21T19:52:42.154Z,52287.53
2023-03-21T19:55:08.921Z,52273.28
2023-03-21T19:57:35.434Z,52263.13
2023-03-21T20:00:02.380Z,52291.59
2023-03-21T20:02:37.489Z,52281.44
2023-03-21T20:05:06.673Z,52281.44
2023-03-21T20:07:33.263Z,52287.53
2023-03-21T20:10:00.102Z,52277.34
2023-03-21T20:12:27.517Z,52293.63
2023-03-21T20:15:07.071Z,52283.47
2023-03-21T20:17:38.937Z,52322.13
2023-03-21T20:20:16.495Z,52277.34
2023-03-21T20:23:05.577Z,52299.75
2023-03-21T20:25:32.654Z,52289.56
2023-03-21T20:28:14.682Z,52261.09
2023-03-21T20:30:51.325Z,52305.84
2023-03-21T20:33:17.876Z,52269.22
2023-03-21T20:38:36.153Z,52275.31
2023-03-21T20:41:05.086Z,52257.00
2023-03-21T20:46:18.566Z,52279.41
2023-03-21T20:48:48.788Z,52289.56
2023-03-21T20:52:27.451Z,52311.94
2023-03-21T20:54:02.426Z,52287.53
2023-03-21T20:56:30.471Z,52303.81
2023-03-21T20:59:14.534Z,52238.69
2023-03-21T21:01:45.187Z,52279.41
2023-03-21T21:04:14.977Z,52277.34
2023-03-21T21:06:41.690Z,52226.50
2023-03-21T21:09:09.360Z,52277.34
2023-03-21T21:14:22.288Z,52279.41
2023-03-21T21:16:49.075Z,52259.03
2023-03-21T21:19:18.810Z,52212.25
2023-03-21T21:21:46.103Z,52248.88
2023-03-21T21:24:14.587Z,52259.03
2023-03-21T21:26:46.211Z,52238.69
2023-03-21T21:29:16.845Z,52263.13
2023-03-21T21:31:49.034Z,52248.88
2023-03-21T21:34:18.084Z,52271.25
2023-03-21T21:36:45.088Z,52252.94
2023-03-21T21:39:13.250Z,52261.09
2023-03-21T21:41:40.030Z,52240.75
2023-03-21T21:44:06.791Z,52252.94
2023-03-21T21:46:33.751Z,52281.44
2023-03-21T21:49:01.997Z,52206.16
2023-03-21T21:51:28.740Z,52250.91
2023-03-21T21:53:56.586Z,52224.47
2023-03-21T21:56:24.347Z,52234.63
2023-03-21T21:58:53.326Z,52257.00
2023-03-21T22:01:23.198Z,52222.41
2023-03-21T22:03:51.614Z,52263.13
2023-03-21T22:06:18.103Z,52267.19
2023-03-21T22:08:47.245Z,52230.56
2023-03-21T22:11:14.661Z,52248.88
2023-03-21T22:13:41.256Z,52234.63
2023-03-21T22:16:08.037Z,52279.41
2023-03-21T22:18:36.105Z,52236.66
2023-03-21T22:21:03.587Z,52212.25
2023-03-21T22:23:30.172Z,52250.91
2023-03-21T22:25:57.760Z,52212.25
2023-03-21T22:28:25.718Z,52220.38
2023-03-21T22:30:53.766Z,52240.75
2023-03-21T22:33:22.180Z,52265.16
2023-03-21T22:35:52.944Z,52271.25
2023-03-21T22:38:28.030Z,52257.00
2023-03-21T22:40:58.969Z,52271.25
2023-03-21T22:43:26.509Z,52267.19
2023-03-21T22:45:53.651Z,52303.81
2023-03-21T22:48:21.465Z,52269.22
2023-03-21T22:50:48.577Z,52252.94
2023-03-21T22:53:15.520Z,52297.72
2023-03-21T22:55:41.957Z,52289.56
2023-03-21T22:58:08.514Z,52277.34
2023-03-21T23:00:34.990Z,52293.63
2023-03-21T23:03:01.623Z,52297.72
2023-03-21T23:05:28.237Z,52303.81
2023-03-21T23:07:54.884Z,52295.66
2023-03-21T23:10:21.627Z,52275.31
2023-03-21T23:12:48.650Z,52318.06
2023-03-21T23:15:15.219Z,52309.91
2023-03-21T23:17:44.209Z,52299.75
2023-03-21T23:20:11.036Z,52271.25
2023-03-21T23:22:37.621Z,52285.50
2023-03-21T23:25:04.719Z,52309.91
2023-03-21T23:27:31.304Z,52313.97
2023-03-21T23:29:57.793Z,52291.59
2023-03-21T23:32:24.287Z,52301.78
2023-03-21T23:34:50.810Z,52301.78
2023-03-21T23:37:17.282Z,52324.16
2023-03-21T23:39:45.349Z,52299.75
2023-03-21T23:42:12.089Z,52277.34
2023-03-21T23:44:38.650Z,52324.16
2023-03-21T23:47:05.427Z,52295.66
2023-03-21T23:49:33.771Z,52303.81
2023-03-21T23:52:00.361Z,52283.47
2023-03-21T23:54:26.913Z,52324.16
2023-03-21T23:56:53.350Z,52293.63
2023-03-21T23:59:19.834Z,52334.34
